createdAt,value
2018-02-24T00:20:06.852Z,-1.60
2018-02-24T00:25:09.960Z,-1.60
2018-02-24T00:30:14.620Z,-1.70
2018-02-24T00:35:18.592Z,-1.70
2018-02-24T00:40:22.439Z,-1.80
2018-02-24T00:50:30.768Z,-1.90
2018-02-24T00:55:34.715Z,-2.00
2018-02-24T01:00:39.178Z,-2.00
2018-02-24T01:15:51.457Z,-2.10
2018-02-24T01:31:04.246Z,-2.30
2018-02-24T01:46:17.556Z,-2.30
2018-02-24T01:51:22.017Z,-2.30
2018-02-24T01:56:25.504Z,-2.30
2018-02-24T02:01:29.740Z,-2.30
2018-02-24T02:06:33.601Z,-2.40
2018-02-24T02:11:36.720Z,-2.50
2018-02-24T02:16:39.817Z,-2.50
2018-02-24T02:21:42.897Z,-2.50
2018-02-24T02:26:46.779Z,-2.60
2018-02-24T02:31:49.882Z,-2.60
2018-02-24T02:36:52.987Z,-2.70
2018-02-24T02:41:56.860Z,-2.80
2018-02-24T02:47:01.110Z,-2.80
2018-02-24T02:52:05.719Z,-2.80
2018-02-24T02:57:08.816Z,-2.80
2018-02-24T03:02:13.251Z,-2.80
2018-02-24T03:07:16.747Z,-2.80
2018-02-24T03:12:20.979Z,-2.80
2018-02-24T03:22:28.936Z,-2.70
2018-02-24T03:27:32.785Z,-2.70
2018-02-24T03:32:35.883Z,-2.70
2018-02-24T03:37:38.993Z,-2.90
2018-02-24T03:47:46.928Z,-2.80
2018-02-24T03:57:54.600Z,-2.80
2018-02-24T04:02:58.687Z,-2.80
2018-02-24T04:08:02.544Z,-2.80
2018-02-24T04:13:06.412Z,-2.70
2018-02-24T04:18:10.640Z,-2.80
2018-02-24T04:23:14.144Z,-2.90
2018-02-24T04:28:17.631Z,-2.90
2018-02-24T04:33:20.720Z,-2.80
2018-02-24T04:38:23.827Z,-2.70
2018-02-24T04:43:28.444Z,-2.70
2018-02-24T04:53:36.769Z,-2.70
2018-02-24T04:58:39.864Z,-2.80
2018-02-24T05:03:43.733Z,-2.80
2018-02-24T05:13:51.685Z,-2.70
2018-02-24T05:18:55.546Z,-2.70
2018-02-24T05:23:58.657Z,-2.60
2018-02-24T05:34:07.049Z,-2.60
2018-02-24T05:39:10.140Z,-2.60
2018-02-24T05:44:14.035Z,-2.50
2018-02-24T05:54:21.949Z,-2.50
2018-02-24T06:04:29.868Z,-2.50
2018-02-24T06:09:34.117Z,-2.40
2018-02-24T06:14:37.208Z,-2.40
2018-02-24T06:19:40.298Z,-2.30
2018-02-24T06:24:43.704Z,-2.30
2018-02-24T06:29:47.572Z,-2.30
2018-02-24T06:45:01.402Z,-2.30
2018-02-24T06:50:05.277Z,-2.30
2018-02-24T06:55:09.917Z,-2.30
2018-02-24T07:05:17.904Z,-2.10
2018-02-24T07:10:21.016Z,-2.00
2018-02-24T07:15:24.123Z,-1.70
2018-02-24T07:25:33.589Z,0.00
2018-02-24T07:30:38.205Z,0.10
2018-02-24T07:35:42.264Z,0.90
2018-02-24T07:40:46.505Z,1.00
2018-02-24T07:45:50.353Z,0.80
2018-02-24T07:50:53.832Z,1.50
2018-02-24T07:55:57.303Z,2.20
2018-02-24T08:01:01.904Z,2.50
2018-02-24T08:06:05.000Z,1.90
2018-02-24T08:11:09.224Z,2.70
2018-02-24T08:21:17.149Z,2.50
2018-02-24T08:26:20.236Z,2.60
2018-02-24T08:31:23.317Z,3.00
2018-02-24T08:36:26.416Z,3.00
2018-02-24T08:41:30.280Z,3.30
2018-02-24T08:46:33.361Z,3.30
2018-02-24T08:51:36.445Z,3.70
2018-02-24T08:56:39.920Z,3.40
2018-02-24T09:01:43.404Z,3.40
2018-02-24T09:06:46.500Z,2.70
2018-02-24T09:11:50.327Z,2.80
2018-02-24T09:16:54.540Z,3.10
2018-02-24T09:21:58.407Z,3.20
2018-02-24T09:27:01.535Z,3.10
2018-02-24T09:32:04.614Z,2.70
2018-02-24T09:37:08.095Z,3.40
2018-02-24T09:52:21.562Z,3.90
2018-02-24T09:57:24.633Z,4.10
2018-02-24T10:07:33.660Z,3.90
2018-02-24T10:12:36.731Z,4.30
2018-02-24T10:22:44.680Z,4.50
2018-02-24T10:27:49.268Z,4.20
2018-02-24T10:37:56.780Z,4.20
2018-02-24T10:43:00.265Z,4.00
2018-02-24T10:48:03.728Z,4.10
2018-02-24T10:53:08.323Z,3.80
2018-02-24T10:58:11.850Z,3.60
2018-02-24T11:08:20.918Z,3.60
2018-02-24T11:13:23.991Z,3.50
2018-02-24T11:18:27.095Z,3.80
2018-02-24T11:23:30.175Z,3.90
2018-02-24T11:28:34.436Z,3.80
2018-02-24T11:38:42.716Z,3.60
2018-02-24T11:43:45.851Z,3.90
2018-02-24T11:48:48.960Z,3.80
2018-02-24T11:58:56.879Z,3.80
2018-02-24T12:04:00.723Z,3.80
2018-02-24T12:09:05.311Z,3.80
2018-02-24T12:19:14.332Z,4.10
2018-02-24T12:24:17.423Z,4.10
2018-02-24T12:29:22.040Z,4.20
2018-02-24T12:34:26.736Z,4.30
2018-02-24T12:44:34.164Z,4.20
2018-02-24T12:49:37.338Z,4.20
2018-02-24T12:54:40.725Z,4.40
2018-02-24T12:59:44.931Z,4.50
2018-02-24T13:04:48.010Z,4.50
2018-02-24T13:09:51.879Z,4.50
2018-02-24T13:14:55.340Z,4.60
2018-02-24T13:19:58.865Z,4.40
2018-02-24T13:25:02.306Z,4.50
2018-02-24T13:30:05.388Z,4.50
2018-02-24T13:35:08.479Z,4.50
2018-02-24T13:40:11.952Z,4.50
2018-02-24T13:45:15.431Z,4.30
2018-02-24T13:50:18.508Z,4.40
2018-02-24T14:00:26.008Z,4.40
2018-02-24T14:05:29.115Z,4.40
2018-02-24T14:10:32.196Z,4.20
2018-02-24T14:15:36.408Z,4.10
2018-02-24T14:20:41.288Z,4.10
2018-02-24T14:25:45.178Z,4.10
2018-02-24T14:40:57.112Z,3.80
2018-02-24T14:51:05.032Z,3.60
2018-02-24T14:56:08.516Z,3.60
2018-02-24T15:11:22.014Z,3.40
2018-02-24T15:16:25.108Z,3.30
2018-02-24T15:21:28.572Z,3.10
2018-02-24T15:26:32.804Z,3.00
2018-02-24T15:31:37.006Z,3.00
2018-02-24T15:36:41.594Z,2.90
2018-02-24T15:41:45.084Z,2.80
2018-02-24T15:46:48.937Z,2.70
2018-02-24T15:56:56.759Z,2.50
2018-02-24T16:02:01.368Z,2.50
2018-02-24T16:07:04.856Z,2.40
2018-02-24T16:12:07.929Z,2.30
2018-02-24T16:17:11.780Z,2.10
2018-02-24T16:22:15.625Z,2.00
2018-02-24T16:27:19.115Z,1.90
2018-02-24T16:37:26.628Z,1.70
2018-02-24T16:47:34.176Z,1.50
2018-02-24T16:52:37.255Z,1.40
2018-02-24T16:57:41.491Z,1.30
2018-02-24T17:02:44.964Z,1.20
2018-02-24T17:12:53.249Z,1.10
2018-02-24T17:17:57.460Z,1.10
2018-02-24T17:23:01.671Z,1.10
2018-02-24T17:33:10.328Z,1.00
2018-02-24T17:38:13.412Z,0.90
2018-02-24T17:43:16.504Z,0.90
2018-02-24T17:48:21.124Z,0.80
2018-02-24T17:58:28.680Z,0.60
2018-02-24T18:03:31.774Z,0.50
2018-02-24T18:08:35.692Z,0.50
2018-02-24T18:13:39.536Z,0.30
2018-02-24T18:23:47.160Z,0.10
2018-02-24T18:38:59.562Z,-0.10
2018-02-24T18:49:07.854Z,-0.20
2018-02-24T18:59:16.157Z,0.00
2018-02-24T19:04:19.239Z,0.10
2018-02-24T19:14:29.261Z,0.30
2018-02-24T19:19:32.364Z,0.30
2018-02-24T19:24:36.600Z,0.20
2018-02-24T19:29:40.072Z,0.10
2018-02-24T19:34:43.152Z,0.30
2018-02-24T19:39:46.316Z,0.40
2018-02-24T19:49:54.584Z,0.40
2018-02-24T19:54:57.677Z,0.50
2018-02-24T20:05:06.153Z,0.40
2018-02-24T20:10:09.996Z,0.40
2018-02-24T20:20:17.509Z,0.30
2018-02-24T20:35:29.876Z,0.30
2018-02-24T20:40:33.356Z,0.20
2018-02-24T20:45:36.872Z,0.10
2018-02-24T20:50:40.371Z,0.10
2018-02-24T20:55:43.448Z,0.10
2018-02-24T21:05:52.501Z,0.00
2018-02-24T21:10:56.732Z,0.00
2018-02-24T21:26:09.793Z,-0.10
2018-02-24T21:31:15.021Z,-0.10
2018-02-24T21:36:19.995Z,-0.20
2018-02-24T21:41:24.467Z,-0.20
2018-02-24T21:46:27.580Z,-0.20
2018-02-24T21:56:35.856Z,-0.30
2018-02-24T22:01:38.964Z,-0.30
2018-02-24T22:06:42.461Z,-0.40
2018-02-24T22:11:45.949Z,-0.50
2018-02-24T22:21:53.895Z,-0.50
2018-02-24T22:32:02.972Z,-0.60
2018-02-24T22:37:06.464Z,-0.60
2018-02-24T22:42:09.948Z,-0.70
2018-02-24T22:47:13.081Z,-0.70
2018-02-24T23:02:25.048Z,-0.90
2018-02-24T23:07:28.140Z,-0.90
2018-02-24T23:17:36.806Z,-1.00
2018-02-24T23:22:39.900Z,-1.00
2018-02-24T23:27:44.007Z,-1.10
2018-02-24T23:32:47.857Z,-1.10
2018-02-24T23:37:50.939Z,-1.20
2018-02-24T23:42:55.172Z,-1.30
2018-02-24T23:53:03.525Z,-1.30
2018-02-24T23:58:07.021Z,-1.40
